Time;durP1;ratioP1;P1;durP2;ratioP2;P2;SDS_P1;SDS_P2;PMS_P1;PMS_P2;Temp;Humidity;BMP_temperature;BMP_pressure;BME280_temperature;BME280_humidity;BME280_pressure;Samples;Min_cycle;Max_cycle;Signal;HPM_P1;HPM_P2
2023/09/04 00:00:18;;;;;;;;;;;;;;;15.79;100.00;96690.94;10560311;28;1469;-78
2023/09/04 00:05:20;;;;;;;;;;;;;;;15.82;100.00;96683.03;10555623;28;1454;-78
2023/09/04 00:10:23;;;;;;;;;;;;;;;15.77;100.00;96688.47;10544374;28;1278;-79
2023/09/04 00:15:25;;;;;;;;;;;;;;;15.81;100.00;96686.03;10549470;28;1922;-78
2023/09/04 00:20:27;;;;;;;;;;;;;;;15.74;100.00;96685.53;10555141;28;1382;-78
2023/09/04 00:25:30;;;;;;;;;;;;;;;15.71;100.00;96686.91;10551781;28;987;-77
2023/09/04 00:30:32;;;;;;;;;;;;;;;15.66;100.00;96695.09;10553110;28;2257;-78
2023/09/04 00:35:35;;;;;;;;;;;;;;;15.70;100.00;96690.72;10554281;28;1979;-78
2023/09/04 00:40:37;;;;;;;;;;;;;;;15.62;100.00;96699.47;10534287;28;1480;-78
2023/09/04 00:45:40;;;;;;;;;;;;;;;15.67;100.00;96704.84;10545406;28;1614;-78
2023/09/04 00:50:42;;;;;;;;;;;;;;;15.57;100.00;96705.69;10549026;28;1408;-78
2023/09/04 00:55:45;;;;;;;;;;;;;;;15.51;100.00;96709.53;10546166;28;5057;-77
2023/09/04 01:00:47;;;;;;;;;;;;;;;15.50;100.00;96702.50;10561106;28;1049;-78
2023/09/04 01:05:50;;;;;;;;;;;;;;;15.41;100.00;96698.78;10544532;28;1536;-77
2023/09/04 01:10:52;;;;;;;;;;;;;;;15.45;100.00;96699.81;10547929;28;1577;-77
2023/09/04 01:15:54;;;;;;;;;;;;;;;15.39;100.00;96692.81;10548642;28;1918;-78
2023/09/04 01:20:57;;;;;;;;;;;;;;;15.47;100.00;96694.94;10551743;28;1026;-79
2023/09/04 01:26:00;;;;;;;;;;;;;;;15.37;100.00;96703.13;10548173;28;2435;-78
2023/09/04 01:31:03;;;;;;;;;;;;;;;15.28;100.00;96694.81;10550993;28;1497;-79
2023/09/04 01:36:05;;;;;;;;;;;;;;;15.22;100.00;96687.00;10528238;28;1918;-78
2023/09/04 01:41:08;;;;;;;;;;;;;;;15.20;100.00;96676.41;10546452;28;1662;-79
2023/09/04 01:46:11;;;;;;;;;;;;;;;15.15;100.00;96665.63;10531053;28;1153;-78
2023/09/04 01:51:13;;;;;;;;;;;;;;;15.11;100.00;96667.28;10550562;28;1480;-78
2023/09/04 01:56:15;;;;;;;;;;;;;;;15.00;100.00;96666.53;10556216;28;1905;-77
2023/09/04 02:01:18;;;;;;;;;;;;;;;15.01;100.00;96673.56;10547643;28;1079;-78
2023/09/04 02:06:20;;;;;;;;;;;;;;;15.04;100.00;96667.59;10543972;28;1528;-78
2023/09/04 02:11:23;;;;;;;;;;;;;;;14.98;100.00;96668.72;10540481;28;1485;-76
2023/09/04 02:16:25;;;;;;;;;;;;;;;14.87;100.00;96665.25;10547651;28;1910;-77
2023/09/04 02:21:27;;;;;;;;;;;;;;;14.86;100.00;96660.13;10550730;28;2277;-78
2023/09/04 02:26:30;;;;;;;;;;;;;;;14.81;100.00;96654.72;10536914;28;1568;-78
2023/09/04 02:31:33;;;;;;;;;;;;;;;14.75;100.00;96648.53;10545200;28;1062;-78
2023/09/04 02:36:35;;;;;;;;;;;;;;;14.72;100.00;96654.50;10542796;28;1972;-77
2023/09/04 02:41:38;;;;;;;;;;;;;;;14.70;100.00;96645.06;10547033;28;1505;-78
2023/09/04 02:46:40;;;;;;;;;;;;;;;14.66;100.00;96650.19;10548039;28;1105;-76
2023/09/04 02:51:43;;;;;;;;;;;;;;;14.52;100.00;96654.59;10546600;28;1485;-77
2023/09/04 02:56:45;;;;;;;;;;;;;;;14.49;100.00;96664.06;10527503;28;5007;-77
2023/09/04 03:01:47;;;;;;;;;;;;;;;14.36;100.00;96656.50;10545172;28;1414;-77
2023/09/04 03:06:50;;;;;;;;;;;;;;;14.24;100.00;96669.53;10550672;28;1401;-78
2023/09/04 03:11:52;;;;;;;;;;;;;;;14.13;100.00;96666.06;10549415;28;1393;-77
2023/09/04 03:16:54;;;;;;;;;;;;;;;14.11;100.00;96670.91;10541813;28;2244;-77
2023/09/04 03:21:57;;;;;;;;;;;;;;;14.00;100.00;96672.84;10540516;28;1588;-79
2023/09/04 03:26:59;;;;;;;;;;;;;;;13.93;100.00;96666.91;10532664;28;1429;-77
2023/09/04 03:32:02;;;;;;;;;;;;;;;13.85;100.00;96672.03;10547089;28;959;-78
2023/09/04 03:37:04;;;;;;;;;;;;;;;13.86;100.00;96662.84;10550783;28;1910;-77
2023/09/04 03:42:07;;;;;;;;;;;;;;;13.74;100.00;96674.78;10537244;28;1404;-77
2023/09/04 03:47:09;;;;;;;;;;;;;;;13.77;100.00;96687.72;10545725;28;1106;-76
2023/09/04 03:52:12;;;;;;;;;;;;;;;13.68;100.00;96693.97;10543542;28;1456;-78
2023/09/04 03:57:14;;;;;;;;;;;;;;;13.75;100.00;96689.09;10551392;28;5418;-77
2023/09/04 04:02:17;;;;;;;;;;;;;;;13.71;100.00;96688.00;10554601;28;1220;-77
2023/09/04 04:07:19;;;;;;;;;;;;;;;13.62;100.00;96695.03;10555714;28;1386;-78
2023/09/04 04:12:22;;;;;;;;;;;;;;;13.53;100.00;96698.25;10546870;28;2314;-78
2023/09/04 04:17:24;;;;;;;;;;;;;;;13.52;100.00;96701.25;10550432;28;2000;-78
2023/09/04 04:22:27;;;;;;;;;;;;;;;13.53;100.00;96700.16;10547905;28;1366;-78
2023/09/04 04:27:29;;;;;;;;;;;;;;;13.45;100.00;96706.09;10553502;28;1380;-78
2023/09/04 04:32:32;;;;;;;;;;;;;;;13.39;100.00;96707.97;10553269;28;1086;-78
2023/09/04 04:37:35;;;;;;;;;;;;;;;13.37;100.00;96706.63;10550924;28;1917;-78
2023/09/04 04:42:37;;;;;;;;;;;;;;;13.39;100.00;96696.38;10547611;28;1445;-78
2023/09/04 04:47:39;;;;;;;;;;;;;;;13.40;100.00;96701.50;10539820;28;1186;-77
2023/09/04 04:52:42;;;;;;;;;;;;;;;13.51;100.00;96710.44;10549339;28;5200;-77
2023/09/04 04:57:44;;;;;;;;;;;;;;;13.69;100.00;96722.59;10551976;28;1971;-76
2023/09/04 05:02:47;;;;;;;;;;;;;;;13.87;100.00;96708.53;10545297;28;1372;-78
2023/09/04 05:07:49;;;;;;;;;;;;;;;14.12;100.00;96698.75;10544206;28;2286;-78
2023/09/04 05:12:52;;;;;;;;;;;;;;;14.43;100.00;96707.59;10542399;28;1444;-77
2023/09/04 05:17:54;;;;;;;;;;;;;;;14.67;100.00;96699.72;10521633;28;1973;-78
2023/09/04 05:28:21;;;;;;;;;;;;;;;14.79;100.00;96700.22;10541003;28;1357;-77
2023/09/04 05:33:31;;;;;;;;;;;;;;;14.73;100.00;96693.19;10549827;28;1313;-77
2023/09/04 05:38:33;;;;;;;;;;;;;;;15.06;100.00;96697.09;10527902;28;1906;-77
2023/09/04 05:43:39;;;;;;;;;;;;;;;15.46;100.00;96698.75;10544126;28;1397;-77
2023/09/04 05:48:47;;;;;;;;;;;;;;;15.63;100.00;96710.00;10551681;28;1283;-78
2023/09/04 05:53:50;;;;;;;;;;;;;;;15.39;100.00;96700.94;10550723;28;4986;-78
2023/09/04 05:58:52;;;;;;;;;;;;;;;15.55;100.00;96697.03;10538601;28;1926;-78
2023/09/04 06:03:55;;;;;;;;;;;;;;;15.67;100.00;96689.41;10543859;28;2358;-77
2023/09/04 06:08:57;;;;;;;;;;;;;;;15.88;100.00;96686.50;10549044;28;1714;-78
2023/09/04 06:13:59;;;;;;;;;;;;;;;16.03;100.00;96699.94;10541513;28;1475;-78
2023/09/04 06:19:02;;;;;;;;;;;;;;;16.07;100.00;96700.97;10548410;28;1986;-77
2023/09/04 06:29:48;;;;;;;;;;;;;;;16.49;100.00;96688.59;10542226;28;1500;-77
2023/09/04 06:34:50;;;;;;;;;;;;;;;16.70;100.00;96698.16;10541812;28;1915;-77
2023/09/04 06:39:53;;;;;;;;;;;;;;;16.86;100.00;96692.50;10557482;28;1540;-77
2023/09/04 06:44:55;;;;;;;;;;;;;;;17.07;100.00;96698.50;10554727;28;1886;-78
2023/09/04 06:49:58;;;;;;;;;;;;;;;16.98;100.00;96701.84;10541488;28;1500;-79
2023/09/04 06:55:00;;;;;;;;;;;;;;;17.39;100.00;96692.34;10548050;28;1906;-78
2023/09/04 07:00:08;;;;;;;;;;;;;;;17.35;100.00;96683.16;10569648;28;2306;-78
2023/09/04 07:05:11;;;;;;;;;;;;;;;17.15;100.00;96684.25;10539720;28;1565;-80
2023/09/04 07:10:14;;;;;;;;;;;;;;;17.43;100.00;96694.19;10547731;28;1654;-77
2023/09/04 07:15:19;;;;;;;;;;;;;;;17.79;100.00;96696.38;10550785;28;1914;-77
2023/09/04 07:20:22;;;;;;;;;;;;;;;18.18;100.00;96697.88;10538799;28;1576;-79
2023/09/04 07:25:24;;;;;;;;;;;;;;;18.43;100.00;96697.41;10550807;28;1639;-78
2023/09/04 07:30:27;;;;;;;;;;;;;;;18.79;100.00;96699.47;10548767;28;1480;-78
2023/09/04 07:35:30;;;;;;;;;;;;;;;18.81;100.00;96697.25;10556610;28;1921;-78
2023/09/04 07:40:33;;;;;;;;;;;;;;;19.12;100.00;96700.13;10546573;28;1501;-78
2023/09/04 07:45:36;;;;;;;;;;;;;;;19.30;100.00;96704.63;10546119;28;1157;-79
2023/09/04 07:50:38;;;;;;;;;;;;;;;19.50;100.00;96706.09;10551308;28;1493;-78
2023/09/04 07:55:41;;;;;;;;;;;;;;;19.29;100.00;96722.13;10555423;28;5084;-77
2023/09/04 08:00:43;;;;;;;;;;;;;;;19.47;100.00;96717.63;10553683;28;1146;-77
2023/09/04 08:05:46;;;;;;;;;;;;;;;19.86;100.00;96719.75;10555390;28;1637;-78
2023/09/04 08:10:50;;;;;;;;;;;;;;;19.70;100.00;96718.47;10555254;28;1505;-78
2023/09/04 08:15:53;;;;;;;;;;;;;;;19.35;100.00;96729.06;10544408;28;1921;-78
2023/09/04 08:20:55;;;;;;;;;;;;;;;20.04;100.00;96706.19;10552857;28;1516;-76
2023/09/04 08:25:58;;;;;;;;;;;;;;;20.35;100.00;96698.81;10553815;28;1509;-79
2023/09/04 08:31:00;;;;;;;;;;;;;;;20.20;100.00;96697.31;10556732;28;1023;-78
2023/09/04 08:36:03;;;;;;;;;;;;;;;20.15;100.00;96708.34;10567850;27;1914;-78
2023/09/04 08:41:05;;;;;;;;;;;;;;;20.26;100.00;96695.25;10535415;28;1631;-78
2023/09/04 08:46:07;;;;;;;;;;;;;;;20.32;100.00;96687.75;10550861;28;1609;-78
2023/09/04 08:51:10;;;;;;;;;;;;;;;20.58;100.00;96682.41;10559215;28;1551;-78
2023/09/04 08:56:12;;;;;;;;;;;;;;;20.27;100.00;96688.66;10549986;28;4955;-78
2023/09/04 09:01:15;;;;;;;;;;;;;;;21.11;100.00;96670.50;10556103;28;1018;-78
2023/09/04 09:06:18;;;;;;;;;;;;;;;21.00;100.00;96681.75;10550800;28;1336;-78
2023/09/04 09:11:20;;;;;;;;;;;;;;;21.42;100.00;96675.88;10544459;28;1460;-77
2023/09/04 09:16:26;;;;;;;;;;;;;;;20.95;100.00;96692.84;10548469;28;1985;-77
2023/09/04 09:21:28;;;;;;;;;;;;;;;21.26;100.00;96678.25;10550309;28;1405;-78
2023/09/04 09:26:31;;;;;;;;;;;;;;;21.44;100.00;96677.19;10553512;28;1277;-79
2023/09/04 09:31:33;;;;;;;;;;;;;;;21.86;100.00;96663.78;10527291;28;1093;-78
2023/09/04 09:36:36;;;;;;;;;;;;;;;22.07;100.00;96656.47;10550252;28;1905;-77
2023/09/04 09:41:38;;;;;;;;;;;;;;;22.41;100.00;96646.59;10547462;28;1595;-77
2023/09/04 09:46:41;;;;;;;;;;;;;;;22.63;100.00;96648.25;10546811;28;1122;-77
2023/09/04 09:51:43;;;;;;;;;;;;;;;22.83;100.00;96646.69;10557944;28;2274;-78
2023/09/04 09:56:46;;;;;;;;;;;;;;;22.47;100.00;96650.75;10553461;27;5081;-77
2023/09/04 10:01:48;;;;;;;;;;;;;;;22.51;100.00;96640.72;10549522;28;1091;-78
2023/09/04 10:06:50;;;;;;;;;;;;;;;22.66;100.00;96636.66;10550851;28;1330;-78
2023/09/04 10:11:53;;;;;;;;;;;;;;;22.53;100.00;96633.00;10545882;28;1428;-78
2023/09/04 10:16:59;;;;;;;;;;;;;;;22.21;100.00;96636.38;10555000;28;1902;-78
2023/09/04 10:22:01;;;;;;;;;;;;;;;22.61;100.00;96623.94;10546152;28;1396;-78
2023/09/04 10:27:03;;;;;;;;;;;;;;;22.90;100.00;96612.19;10540867;28;1406;-79
2023/09/04 10:32:08;;;;;;;;;;;;;;;22.71;100.00;96608.22;10541506;28;1307;-78
2023/09/04 10:37:10;;;;;;;;;;;;;;;22.53;100.00;96600.13;10542505;28;1972;-77
2023/09/04 10:42:13;;;;;;;;;;;;;;;23.03;100.00;96607.59;10539695;28;1425;-78
2023/09/04 10:47:15;;;;;;;;;;;;;;;22.83;100.00;96600.09;10564695;28;2277;-78
2023/09/04 10:52:18;;;;;;;;;;;;;;;23.03;100.00;96593.88;10553794;28;1531;-78
2023/09/04 10:57:22;;;;;;;;;;;;;;;22.61;100.00;96588.31;10537811;28;1917;-78
2023/09/04 11:02:24;;;;;;;;;;;;;;;22.83;100.00;96591.88;10554116;28;1711;-78
2023/09/04 11:07:26;;;;;;;;;;;;;;;22.46;100.00;96594.38;10558620;28;1353;-78
2023/09/04 11:12:29;;;;;;;;;;;;;;;22.77;100.00;96583.03;10555766;28;1353;-78
2023/09/04 11:17:31;;;;;;;;;;;;;;;23.07;100.00;96585.78;10555128;28;1913;-77
2023/09/04 11:22:33;;;;;;;;;;;;;;;22.60;100.00;96589.44;10541512;28;1642;-79
2023/09/04 11:27:36;;;;;;;;;;;;;;;22.78;100.00;96578.38;10555833;28;1350;-78
2023/09/04 11:32:38;;;;;;;;;;;;;;;22.68;100.00;96579.56;10562049;28;1216;-77
2023/09/04 11:37:41;;;;;;;;;;;;;;;22.79;100.00;96580.00;10542129;28;1985;-77
2023/09/04 11:42:44;;;;;;;;;;;;;;;22.91;100.00;96586.38;10549966;28;2334;-78
2023/09/04 11:47:47;;;;;;;;;;;;;;;22.76;100.00;96575.16;10539770;28;1552;-77
2023/09/04 11:52:49;;;;;;;;;;;;;;;22.86;100.00;96585.75;10553717;28;5053;-78
2023/09/04 11:57:52;;;;;;;;;;;;;;;22.65;100.00;96564.59;10552565;28;1979;-78
2023/09/04 12:02:54;;;;;;;;;;;;;;;23.12;100.00;96560.91;10552300;28;1572;-78
2023/09/04 12:07:56;;;;;;;;;;;;;;;23.25;100.00;96548.06;10542760;28;1545;-78
2023/09/04 12:12:59;;;;;;;;;;;;;;;23.40;100.00;96561.13;10544961;28;1540;-78
2023/09/04 12:18:01;;;;;;;;;;;;;;;23.50;100.00;96538.78;10555233;28;1964;-79
2023/09/04 12:23:04;;;;;;;;;;;;;;;23.32;100.00;96534.59;10551314;28;1479;-78
2023/09/04 12:28:06;;;;;;;;;;;;;;;23.05;100.00;96534.03;10548311;28;1469;-78
2023/09/04 12:33:08;;;;;;;;;;;;;;;23.21;100.00;96520.47;10559223;28;1517;-78
2023/09/04 12:38:11;;;;;;;;;;;;;;;23.15;100.00;96528.09;10534994;28;2126;-79
2023/09/04 12:43:14;;;;;;;;;;;;;;;23.24;100.00;96528.06;10533361;28;1459;-78
2023/09/04 12:48:16;;;;;;;;;;;;;;;23.07;100.00;96520.78;10534595;28;1502;-78
2023/09/04 12:53:18;;;;;;;;;;;;;;;23.17;100.00;96523.13;10546742;28;5145;-78
2023/09/04 12:58:21;;;;;;;;;;;;;;;23.27;100.00;96527.38;10557445;28;1998;-78
2023/09/04 13:03:23;;;;;;;;;;;;;;;23.25;100.00;96510.44;10548982;28;1215;-78
2023/09/04 13:08:26;;;;;;;;;;;;;;;23.01;100.00;96513.88;10545135;28;1345;-78
2023/09/04 13:13:29;;;;;;;;;;;;;;;23.10;100.00;96516.56;10536791;28;1467;-79
2023/09/04 13:18:32;;;;;;;;;;;;;;;22.98;100.00;96517.31;10550290;28;1914;-80
2023/09/04 13:23:36;;;;;;;;;;;;;;;22.97;100.00;96509.41;10561084;28;1149;-78
2023/09/04 13:28:38;;;;;;;;;;;;;;;22.89;100.00;96497.38;10553256;28;1342;-79
2023/09/04 13:33:40;;;;;;;;;;;;;;;22.88;100.00;96482.88;10547156;28;1058;-78
2023/09/04 13:38:44;;;;;;;;;;;;;;;23.10;100.00;96484.47;10548654;28;2618;-78
2023/09/04 13:43:46;;;;;;;;;;;;;;;23.19;100.00;96468.72;10547567;28;1365;-79
2023/09/04 13:48:49;;;;;;;;;;;;;;;23.23;100.00;96468.84;10553087;28;1434;-79
2023/09/04 13:53:51;;;;;;;;;;;;;;;23.19;100.00;96468.72;10550786;28;5109;-78
2023/09/04 13:58:53;;;;;;;;;;;;;;;23.16;100.00;96474.88;10543884;28;1913;-78
2023/09/04 14:03:56;;;;;;;;;;;;;;;22.86;100.00;96462.38;10534938;28;1055;-79
2023/09/04 14:08:59;;;;;;;;;;;;;;;23.18;100.00;96458.88;10544204;28;1323;-79
2023/09/04 14:14:01;;;;;;;;;;;;;;;23.08;100.00;96453.81;10553682;28;1451;-78
2023/09/04 14:19:03;;;;;;;;;;;;;;;23.08;100.00;96445.59;10554433;28;1917;-79
2023/09/04 14:24:06;;;;;;;;;;;;;;;23.20;100.00;96451.13;10539504;28;1397;-79
2023/09/04 14:29:13;;;;;;;;;;;;;;;23.27;100.00;96447.03;10538389;28;1441;-78
2023/09/04 14:34:18;;;;;;;;;;;;;;;23.14;100.00;96443.44;10541165;28;2634;-77
2023/09/04 14:39:20;;;;;;;;;;;;;;;22.99;100.00;96442.16;10543447;28;1914;-77
2023/09/04 14:44:23;;;;;;;;;;;;;;;23.10;100.00;96448.81;10544087;28;1478;-79
2023/09/04 14:49:25;;;;;;;;;;;;;;;23.21;100.00;96443.69;10543782;28;1301;-79
2023/09/04 14:54:28;;;;;;;;;;;;;;;23.01;100.00;96450.03;10546561;28;5144;-79
2023/09/04 14:59:31;;;;;;;;;;;;;;;22.97;100.00;96449.91;10537231;28;1981;-77
2023/09/04 15:04:33;;;;;;;;;;;;;;;23.22;100.00;96460.94;10542815;28;1333;-78
2023/09/04 15:09:35;;;;;;;;;;;;;;;23.16;100.00;96452.94;10544496;28;1168;-77
2023/09/04 15:14:38;;;;;;;;;;;;;;;22.98;100.00;96453.44;10551381;28;1389;-78
2023/09/04 15:19:40;;;;;;;;;;;;;;;22.89;100.00;96443.34;10549125;28;1918;-78
2023/09/04 15:24:43;;;;;;;;;;;;;;;22.95;100.00;96440.41;10542622;28;1738;-79
2023/09/04 15:29:45;;;;;;;;;;;;;;;22.78;100.00;96441.34;10545621;28;2376;-77
2023/09/04 15:34:47;;;;;;;;;;;;;;;22.63;100.00;96440.81;10550711;28;1429;-78
2023/09/04 15:39:50;;;;;;;;;;;;;;;22.60;100.00;96436.00;10554702;28;1980;-78
2023/09/04 15:44:52;;;;;;;;;;;;;;;22.45;100.00;96435.78;10552940;28;1674;-76
2023/09/04 15:49:54;;;;;;;;;;;;;;;22.34;100.00;96432.66;10551197;28;1010;-77
2023/09/04 15:54:57;;;;;;;;;;;;;;;22.36;100.00;96431.19;10551912;28;5053;-77
2023/09/04 16:00:01;;;;;;;;;;;;;;;22.33;100.00;96431.03;10558143;28;1907;-77
2023/09/04 16:05:03;;;;;;;;;;;;;;;22.21;100.00;96425.50;10558276;28;1317;-79
2023/09/04 16:10:06;;;;;;;;;;;;;;;22.18;100.00;96426.16;10543967;28;1393;-78
2023/09/04 16:15:09;;;;;;;;;;;;;;;22.00;100.00;96437.19;10547250;28;1055;-79
2023/09/04 16:20:11;;;;;;;;;;;;;;;21.95;100.00;96437.38;10547276;28;1914;-79
2023/09/04 16:25:14;;;;;;;;;;;;;;;21.86;100.00;96428.41;10557361;28;2343;-78
2023/09/04 16:30:16;;;;;;;;;;;;;;;21.74;100.00;96425.56;10556023;28;1042;-78
2023/09/04 16:35:18;;;;;;;;;;;;;;;21.62;100.00;96425.47;10539791;28;1440;-78
2023/09/04 16:40:21;;;;;;;;;;;;;;;21.57;100.00;96429.19;10543024;28;1918;-77
2023/09/04 16:45:23;;;;;;;;;;;;;;;21.46;100.00;96425.22;10549028;28;1362;-78
2023/09/04 16:50:26;;;;;;;;;;;;;;;21.36;100.00;96420.09;10553631;28;1274;-78
2023/09/04 16:55:28;;;;;;;;;;;;;;;21.23;100.00;96419.13;10542003;28;5287;-77
2023/09/04 17:00:31;;;;;;;;;;;;;;;21.16;100.00;96425.09;10546315;28;1914;-79
2023/09/04 17:05:35;;;;;;;;;;;;;;;21.05;100.00;96419.16;10537891;28;1334;-77
2023/09/04 17:10:37;;;;;;;;;;;;;;;20.93;100.00;96418.22;10551884;28;1333;-77
2023/09/04 17:15:39;;;;;;;;;;;;;;;20.83;100.00;96413.91;10550202;28;1106;-78
2023/09/04 17:20:42;;;;;;;;;;;;;;;20.69;100.00;96424.22;10542940;28;2450;-78
2023/09/04 17:25:46;;;;;;;;;;;;;;;20.50;100.00;96416.38;10550868;28;1274;-78
2023/09/04 17:30:52;;;;;;;;;;;;;;;20.37;100.00;96415.38;10524248;28;1468;-78
2023/09/04 17:35:54;;;;;;;;;;;;;;;20.19;100.00;96411.00;10542457;28;1389;-78
2023/09/04 17:40:56;;;;;;;;;;;;;;;20.10;100.00;96421.09;10541837;28;1988;-77
2023/09/04 17:45:59;;;;;;;;;;;;;;;19.93;100.00;96419.97;10545834;28;1031;-78
2023/09/04 17:51:01;;;;;;;;;;;;;;;19.80;100.00;96423.63;10543016;28;1344;-79
2023/09/04 17:56:04;;;;;;;;;;;;;;;19.67;100.00;96427.28;10549956;28;5140;-78
2023/09/04 18:01:09;;;;;;;;;;;;;;;19.45;100.00;96425.38;10546177;28;1967;-79
2023/09/04 18:06:12;;;;;;;;;;;;;;;19.21;100.00;96424.94;10548842;28;1373;-78
2023/09/04 18:11:14;;;;;;;;;;;;;;;19.07;100.00;96430.47;10553245;28;1400;-79
2023/09/04 18:16:17;;;;;;;;;;;;;;;18.94;100.00;96436.81;10545725;28;2480;-79
2023/09/04 18:21:19;;;;;;;;;;;;;;;18.76;100.00;96436.69;10544906;28;1922;-79
2023/09/04 18:26:22;;;;;;;;;;;;;;;18.50;100.00;96443.81;10540227;28;1405;-78
2023/09/04 18:31:24;;;;;;;;;;;;;;;18.51;100.00;96438.09;10541021;28;1420;-79
2023/09/04 18:36:28;;;;;;;;;;;;;;;18.36;100.00;96444.66;10547458;28;952;-79
2023/09/04 18:41:30;;;;;;;;;;;;;;;18.19;100.00;96447.22;10556852;28;1902;-79
2023/09/04 18:46:32;;;;;;;;;;;;;;;18.18;100.00;96448.34;10562585;28;1215;-79
2023/09/04 18:51:35;;;;;;;;;;;;;;;18.09;100.00;96458.34;10548738;28;1444;-78
2023/09/04 18:56:37;;;;;;;;;;;;;;;17.99;100.00;96450.38;10549706;28;5166;-77
2023/09/04 19:01:40;;;;;;;;;;;;;;;17.90;100.00;96455.75;10545572;28;1980;-78
2023/09/04 19:06:42;;;;;;;;;;;;;;;17.92;100.00;96458.16;10546649;28;1449;-79
2023/09/04 19:11:45;;;;;;;;;;;;;;;17.82;100.00;96454.56;10552306;28;2305;-78
2023/09/04 19:16:47;;;;;;;;;;;;;;;17.72;100.00;96457.47;10544326;28;1473;-79
2023/09/04 19:21:50;;;;;;;;;;;;;;;17.57;100.00;96460.47;10546901;28;1910;-79
2023/09/04 19:26:52;;;;;;;;;;;;;;;17.51;100.00;96457.03;10538519;28;1580;-77
2023/09/04 19:31:54;;;;;;;;;;;;;;;17.35;100.00;96454.88;10555373;28;1357;-77
2023/09/04 19:36:57;;;;;;;;;;;;;;;17.37;100.00;96460.81;10556074;28;1098;-77
2023/09/04 19:41:59;;;;;;;;;;;;;;;17.22;100.00;96470.06;10552244;28;1918;-78
2023/09/04 19:47:02;;;;;;;;;;;;;;;17.17;100.00;96468.22;10546182;28;1212;-78
2023/09/04 19:52:06;;;;;;;;;;;;;;;17.09;100.00;96457.25;10555325;28;1478;-78
2023/09/04 19:57:09;;;;;;;;;;;;;;;17.02;100.00;96461.16;10552028;28;1353;-79
2023/09/04 20:02:12;;;;;;;;;;;;;;;16.96;100.00;96454.22;10550048;28;1980;-78
2023/09/04 20:07:14;;;;;;;;;;;;;;;16.85;100.00;96449.25;10554988;28;1452;-77
2023/09/04 20:12:16;;;;;;;;;;;;;;;16.81;100.00;96454.47;10550046;28;1402;-79
2023/09/04 20:17:19;;;;;;;;;;;;;;;16.73;100.00;96442.38;10545099;28;1000;-78
2023/09/04 20:22:22;;;;;;;;;;;;;;;16.69;100.00;96452.19;10551273;28;1906;-79
2023/09/04 20:27:25;;;;;;;;;;;;;;;16.66;100.00;96446.53;10541079;28;1460;-78
2023/09/04 20:32:27;;;;;;;;;;;;;;;16.49;100.00;96444.38;10554288;28;1023;-78
2023/09/04 20:37:32;;;;;;;;;;;;;;;16.42;100.00;96450.16;10550721;28;1607;-78
2023/09/04 20:42:35;;;;;;;;;;;;;;;16.40;100.00;96448.81;10539253;28;1961;-78
2023/09/04 20:47:37;;;;;;;;;;;;;;;16.41;100.00;96436.88;10552856;28;1269;-78
2023/09/04 20:52:40;;;;;;;;;;;;;;;16.32;100.00;96436.72;10551992;28;4966;-78
2023/09/04 20:57:42;;;;;;;;;;;;;;;16.18;100.00;96442.09;10560467;28;1441;-77
2023/09/04 21:02:44;;;;;;;;;;;;;;;16.13;100.00;96439.44;10540081;28;1914;-79
2023/09/04 23:26:06;;;;;;;;;;;;;;;14.82;100.00;96332.38;10555602;28;1694;-78
2023/09/04 23:31:09;;;;;;;;;;;;;;;14.82;100.00;96328.84;10554414;28;1486;-78
2023/09/04 23:36:24;;;;;;;;;;;;;;;14.81;100.00;96327.22;10561044;28;1508;-78
2023/09/04 23:46:47;;;;;;;;;;;;;;;14.77;100.00;96320.78;10555256;28;1224;-77
2023/09/04 23:51:49;;;;;;;;;;;;;;;14.69;100.00;96314.09;10558843;28;1481;-77
2023/09/04 23:56:51;;;;;;;;;;;;;;;14.70;100.00;96306.81;10553940;28;5601;-76
